Columbia, VA (23038)

9:02 PM EDT on May 26, 2017 (GMT -0400)
Palmyra | | Change Station

Elev 377 ft 37.87 °N, 78.18 °W | Updated 2 seconds ago

Clear
Clear
65.7 °F
Feels Like 65.7 °F
N
0.0
Wind Variable Wind from SSW
Gusts 0.0 mph

Today
High -- | Low -- °F
--% Chance of Precip.
Yesterday
High -- | Low -- °F
Precip. -- in
Pressure 29.88 in
Visibility 10.0 miles
Clouds Clear
Dew Point 64 °F
Humidity 94%
Rainfall 0.00 in
Snow Depth Not available.
5:55 AM 8:24 PM
New Moon, 2% visible
METAR KLKU 270055Z AUTO 00000KT 10SM CLR 18/16 A2988 RMK AO2
Pressure 29.88 in
Visibility 10.0 miles
Clouds Clear
Dew Point 64 °F
Humidity 94%
Rainfall 0.00 in
Snow Depth Not available.
5:55 AM 8:24 PM
New Moon, 2% visible
METAR KLKU 270055Z AUTO 00000KT 10SM CLR 18/16 A2988 RMK AO2

Get Your Daily Forecast Email!

Thanks for signing up!

Be on the lookout for a verification email in your inbox.

You'll start receiving severe weather alerts in your inbox..

×

10-Day Weather Forecast

Almanac

Astronomy

May. 26, 2017 Rise Set
Actual Time
Civil Twilight
Nautical Twilight
Astronomical Twilight
Moon
Length of Visible Light
Length of Day
Tomorrow will be .
, % of the Moon is Illuminated

Today's Extremes

State Highs State Lows

Community

WunderPhotos

Category 6

Welcome to Category 6. This is the collective home for Weather Underground's featured writeups by Dr. Jeff Masters (right), Bob Henson (left), Chris Burt, and other regular contributors.

Nearby

Air Quality

  Air Quality AQ Index Pollutant
Not available.

Snow Depth

Station Depth Elevation

Earthquake Activity

City Distance Mag. Time & Date
Minimum magnitude displayed is 2.5.

Coastal Water Temperatures

Place Temperature

Stations

Nearby Weather Stations

Station Location Temp. Windchill Dew Point Humidity Wind Precip. Elev Updated Type
                   

Watches & Warnings

Flood Warning
Issued: 7:10 PM EDT May. 26, 2017 – National Weather Service

The Flood Warning continues for
the James River at Bremo Bluff
* until Saturday afternoon... or until the warning is cancelled.
* At 06:35 PM Friday the stage was 23.1 feet.
* Moderate flooding is occurring.
* Flood stage is 19.0 feet.
* Forecast... the river will fall to below flood stage by late
Saturday evening.
* At 23.0 feet... moderate flooding begins.



Lat... Lon 3779 7840 3778 7817 3768 7819 3763 7825
      3771 7846




Hydrologic Statement
Issued: 11:55 AM EDT May. 26, 2017 – National Weather Service

Forecast information for
Rivanna river at Palmyra
* at 11:35 am Friday the stage was 8.1 feet.
* No flooding is currently forecast.
* Flood stage is 17.0 feet.
* Forecast... the river will rise to near 7.7 feet this afternoon



Lat... Lon 3799 7830 3781 7814 3775 7820 3790 7839